createdAt,value
2018-10-12T00:01:31.397Z,64.30
2018-10-12T00:03:58.905Z,61.90
2018-10-12T00:06:26.362Z,62.90
2018-10-12T00:08:53.794Z,61.30
2018-10-12T00:11:21.282Z,60.60
2018-10-12T00:13:48.813Z,61.80
2018-10-12T00:16:16.293Z,62.80
2018-10-12T00:18:43.749Z,66.30
2018-10-12T00:21:11.386Z,67.10
2018-10-12T00:23:38.919Z,66.40
2018-10-12T00:26:06.418Z,65.70
2018-10-12T00:28:33.947Z,64.00
2018-10-12T00:31:01.366Z,62.90
2018-10-12T00:33:28.814Z,62.70
2018-10-12T00:35:56.413Z,62.30
2018-10-12T00:38:23.875Z,60.20
2018-10-12T00:40:51.353Z,60.90
2018-10-12T00:43:18.954Z,60.70
2018-10-12T00:45:46.502Z,59.90
2018-10-12T00:48:14.096Z,64.80
2018-10-12T00:50:41.577Z,60.20
2018-10-12T00:53:09.121Z,61.10
2018-10-12T00:55:36.614Z,65.80
2018-10-12T00:58:04.150Z,61.80
2018-10-12T01:00:31.608Z,65.80
2018-10-12T01:02:59.089Z,63.60
2018-10-12T01:05:26.550Z,61.80
2018-10-12T01:07:53.987Z,62.30
2018-10-12T01:10:21.442Z,65.30
2018-10-12T01:12:49.051Z,64.40
2018-10-12T01:15:16.600Z,64.50
2018-10-12T01:17:44.136Z,63.60
2018-10-12T01:20:11.719Z,62.20
2018-10-12T01:22:39.230Z,58.90
2018-10-12T01:25:07.639Z,63.30
2018-10-12T01:27:35.217Z,63.80
2018-10-12T01:30:02.974Z,60.00
2018-10-12T01:32:36.090Z,63.10
2018-10-12T01:35:03.590Z,62.70
2018-10-12T01:37:31.223Z,61.20
2018-10-12T01:39:58.726Z,57.10
2018-10-12T01:42:26.155Z,57.20
2018-10-12T01:44:53.625Z,59.50
2018-10-12T01:47:21.158Z,61.20
2018-10-12T01:49:48.670Z,62.00
2018-10-12T01:52:16.225Z,63.50
2018-10-12T01:54:43.818Z,61.90
2018-10-12T01:57:12.094Z,61.70
2018-10-12T01:59:39.650Z,64.70
2018-10-12T02:02:07.230Z,64.70
2018-10-12T02:04:34.765Z,62.10
2018-10-12T02:07:02.970Z,64.10
2018-10-12T02:09:30.410Z,61.20
2018-10-12T02:11:58.015Z,61.70
2018-10-12T02:14:25.645Z,60.10
2018-10-12T02:16:53.194Z,61.80
2018-10-12T02:19:20.658Z,60.00
2018-10-12T02:21:48.116Z,62.40
2018-10-12T02:24:15.694Z,65.20
2018-10-12T02:26:43.426Z,59.60
2018-10-12T02:29:10.943Z,61.00
2018-10-12T02:31:38.383Z,65.00
2018-10-12T02:34:05.966Z,63.40
2018-10-12T02:36:33.436Z,59.30
2018-10-12T02:39:01.066Z,63.40
2018-10-12T02:41:28.482Z,65.20
2018-10-12T02:43:55.950Z,60.80
2018-10-12T02:46:23.418Z,59.80
2018-10-12T02:48:50.911Z,58.90
2018-10-12T02:51:18.438Z,62.40
2018-10-12T02:53:45.995Z,67.30
2018-10-12T02:56:19.320Z,63.70
2018-10-12T02:58:46.872Z,61.50
2018-10-12T03:01:14.306Z,64.80
2018-10-12T03:03:41.758Z,64.50
2018-10-12T03:06:09.334Z,63.10
2018-10-12T03:08:36.826Z,59.20
2018-10-12T03:11:04.423Z,57.80
2018-10-12T03:13:32.161Z,61.80
2018-10-12T03:15:59.597Z,57.00
2018-10-12T03:18:27.118Z,59.80
2018-10-12T03:20:54.541Z,64.10
2018-10-12T03:23:22.006Z,64.40
2018-10-12T03:25:49.459Z,62.80
2018-10-12T03:28:27.649Z,57.80
2018-10-12T03:30:55.981Z,63.40
2018-10-12T03:33:23.514Z,64.20
2018-10-12T03:35:51.175Z,61.90
2018-10-12T03:38:18.637Z,60.30
2018-10-12T03:40:46.157Z,64.60
2018-10-12T03:43:13.682Z,61.00
2018-10-12T03:45:41.959Z,63.00
2018-10-12T03:48:09.439Z,61.80
2018-10-12T03:50:36.998Z,57.60
2018-10-12T03:53:04.478Z,58.40
2018-10-12T03:55:31.975Z,65.00
2018-10-12T03:57:59.402Z,64.10
2018-10-12T04:00:27.084Z,63.20
2018-10-12T04:02:54.619Z,57.90
2018-10-12T04:05:22.084Z,62.30
2018-10-12T04:07:49.667Z,63.20
2018-10-12T04:10:17.106Z,61.60
2018-10-12T04:12:44.600Z,58.80
2018-10-12T04:15:12.014Z,64.60
2018-10-12T04:17:39.522Z,60.20
2018-10-12T04:20:07.088Z,62.00
2018-10-12T04:22:34.603Z,67.00
2018-10-12T04:25:02.163Z,63.70
2018-10-12T04:27:29.621Z,63.40
2018-10-12T04:29:57.138Z,67.30
2018-10-12T04:32:24.625Z,64.80
2018-10-12T04:34:52.043Z,62.80
2018-10-12T04:37:19.521Z,61.00
2018-10-12T04:39:56.702Z,64.00
2018-10-12T04:42:24.199Z,62.00
2018-10-12T04:44:51.677Z,63.10
2018-10-12T04:47:20.103Z,58.20
2018-10-12T04:49:47.622Z,59.00
2018-10-12T04:52:15.201Z,59.80
2018-10-12T04:54:42.955Z,58.80
2018-10-12T04:57:10.418Z,66.40
2018-10-12T04:59:37.905Z,66.90
2018-10-12T05:02:05.447Z,65.40
2018-10-12T05:04:32.991Z,64.30
2018-10-12T05:07:00.555Z,64.20
2018-10-12T05:09:28.058Z,60.70
2018-10-12T05:11:55.648Z,57.70
2018-10-12T05:14:23.087Z,61.60
2018-10-12T05:16:50.635Z,65.20
2018-10-12T05:19:18.119Z,64.10
2018-10-12T05:21:45.680Z,64.10
2018-10-12T05:24:13.074Z,63.30
2018-10-12T05:26:40.603Z,62.60
2018-10-12T05:29:08.137Z,62.80
2018-10-12T05:31:35.682Z,62.60
2018-10-12T05:34:03.166Z,62.00
2018-10-12T05:36:30.606Z,61.50
2018-10-12T05:38:58.082Z,60.30
2018-10-12T05:41:25.602Z,60.50
2018-10-12T05:43:53.090Z,59.10
2018-10-12T05:46:20.505Z,58.50
2018-10-12T05:48:59.255Z,61.30
2018-10-12T05:51:26.787Z,59.70
2018-10-12T05:53:54.426Z,59.20
2018-10-12T05:56:25.065Z,60.00
2018-10-12T05:58:53.134Z,59.00
2018-10-12T06:01:20.672Z,59.70
2018-10-12T06:03:48.258Z,61.50
2018-10-12T06:06:15.744Z,60.60
2018-10-12T06:08:43.289Z,61.60
2018-10-12T06:11:10.933Z,62.40
2018-10-12T06:13:38.434Z,67.20
2018-10-12T06:16:06.037Z,62.00
2018-10-12T06:18:33.567Z,63.80
2018-10-12T06:21:01.037Z,60.20
2018-10-12T06:23:28.536Z,61.10
2018-10-12T06:25:55.990Z,63.30
2018-10-12T06:28:23.478Z,66.90
2018-10-12T06:30:50.950Z,65.40
2018-10-12T06:33:18.414Z,64.20
2018-10-12T06:35:45.844Z,59.20
2018-10-12T06:38:14.248Z,63.60
2018-10-12T06:40:41.720Z,61.80
2018-10-12T06:43:09.221Z,59.00
2018-10-12T06:45:36.723Z,60.00
2018-10-12T06:48:04.181Z,64.20
2018-10-12T06:50:31.742Z,61.80
2018-10-12T06:52:59.265Z,60.00
2018-10-12T06:55:26.818Z,60.60
2018-10-12T06:57:54.366Z,64.70
2018-10-12T07:00:21.985Z,59.10
2018-10-12T07:02:49.597Z,58.50
2018-10-12T07:05:17.171Z,57.10
2018-10-12T07:07:44.966Z,59.70
2018-10-12T07:10:12.493Z,56.50
2018-10-12T07:12:39.974Z,56.90
2018-10-12T07:15:07.780Z,58.60
2018-10-12T07:17:35.173Z,57.90
2018-10-12T07:20:02.694Z,58.20
2018-10-12T07:22:30.188Z,56.20
2018-10-12T07:24:57.653Z,59.00
2018-10-12T07:27:25.103Z,59.80
2018-10-12T07:29:52.625Z,60.00
2018-10-12T07:32:20.053Z,59.80
2018-10-12T07:34:47.545Z,59.50
2018-10-12T07:37:15.055Z,59.00
2018-10-12T07:39:42.491Z,59.10
2018-10-12T07:42:09.956Z,55.30
2018-10-12T07:44:37.470Z,57.30
2018-10-12T07:47:05.005Z,58.00
2018-10-12T07:49:32.478Z,55.40
2018-10-12T07:51:59.967Z,55.40
2018-10-12T07:54:27.385Z,55.70
2018-10-12T07:56:58.277Z,56.30
2018-10-12T07:59:25.710Z,57.20
2018-10-12T08:01:53.143Z,57.50
2018-10-12T08:04:20.649Z,57.10
2018-10-12T08:06:48.165Z,56.80
2018-10-12T08:09:15.590Z,56.90
2018-10-12T08:11:43.115Z,59.50
2018-10-12T08:14:10.581Z,56.70
2018-10-12T08:16:38.086Z,55.70
2018-10-12T08:19:06.573Z,58.50
2018-10-12T08:21:34.027Z,56.30
2018-10-12T08:24:01.600Z,55.60
2018-10-12T08:26:29.142Z,56.30
2018-10-12T08:28:56.666Z,56.30
2018-10-12T08:31:24.231Z,55.80
2018-10-12T08:33:51.729Z,55.70
2018-10-12T08:36:19.234Z,55.90
2018-10-12T08:38:46.672Z,55.90
2018-10-12T08:41:14.166Z,54.60
2018-10-12T08:43:41.606Z,52.00
2018-10-12T08:46:09.114Z,50.10
2018-10-12T08:48:36.663Z,47.80
2018-10-12T08:51:04.115Z,44.20
2018-10-12T08:53:31.544Z,46.20
2018-10-12T08:55:59.081Z,46.70
2018-10-12T08:58:26.625Z,47.10
2018-10-12T09:00:54.110Z,46.50
2018-10-12T09:03:21.651Z,47.80
2018-10-12T09:05:49.103Z,49.60
2018-10-12T09:08:16.639Z,49.70
2018-10-12T09:10:44.127Z,49.50
2018-10-12T09:13:11.670Z,49.80
2018-10-12T09:15:39.153Z,51.70
2018-10-12T09:18:06.616Z,52.50
2018-10-12T09:20:34.503Z,53.20
2018-10-12T09:23:01.560Z,53.70
2018-10-12T09:25:29.134Z,54.10
2018-10-12T09:27:56.794Z,54.50
2018-10-12T09:30:24.379Z,54.60
2018-10-12T09:32:51.822Z,54.60
2018-10-12T09:35:19.363Z,54.60
2018-10-12T09:37:46.807Z,54.90
2018-10-12T09:40:14.517Z,54.70
2018-10-12T09:42:41.957Z,54.10
2018-10-12T09:45:09.476Z,55.20
2018-10-12T09:47:37.102Z,54.50
2018-10-12T09:50:04.688Z,54.40
2018-10-12T09:52:32.170Z,53.90
2018-10-12T09:54:59.668Z,53.90
2018-10-12T09:57:32.981Z,53.90
2018-10-12T10:00:00.455Z,53.80
2018-10-12T10:02:33.568Z,54.10
2018-10-12T10:05:07.200Z,53.30
2018-10-12T10:07:34.906Z,53.20
2018-10-12T10:10:02.334Z,53.10
2018-10-12T10:12:29.855Z,54.60
2018-10-12T10:14:57.427Z,54.80
2018-10-12T10:17:24.957Z,53.70
2018-10-12T10:19:52.466Z,54.80
2018-10-12T10:22:19.987Z,53.60
2018-10-12T10:24:47.539Z,53.90
2018-10-12T10:27:15.134Z,53.20
2018-10-12T10:29:42.654Z,53.40
2018-10-12T10:32:10.308Z,52.70
2018-10-12T10:34:37.770Z,52.60
2018-10-12T10:37:05.689Z,52.30
2018-10-12T10:39:33.202Z,51.90
2018-10-12T10:42:00.645Z,53.60
2018-10-12T10:44:28.127Z,53.30
2018-10-12T10:46:55.631Z,52.70
2018-10-12T10:49:23.178Z,54.40
2018-10-12T10:51:50.638Z,54.70
2018-10-12T10:54:18.134Z,53.40
2018-10-12T10:56:45.754Z,53.50
2018-10-12T10:59:13.242Z,52.00
2018-10-12T11:01:40.715Z,44.50
2018-10-12T11:04:08.363Z,39.70
2018-10-12T11:06:35.816Z,36.90
2018-10-12T11:09:05.002Z,36.00
2018-10-12T11:11:32.481Z,34.80
2018-10-12T11:13:59.899Z,35.10
2018-10-12T11:16:27.502Z,33.80
2018-10-12T11:18:55.004Z,33.10
2018-10-12T11:21:22.435Z,32.80
2018-10-12T11:23:49.850Z,34.10
2018-10-12T11:26:17.364Z,37.60
2018-10-12T11:28:44.946Z,41.80
2018-10-12T11:31:12.414Z,45.00
2018-10-12T11:33:39.854Z,47.10
2018-10-12T11:36:07.300Z,47.40
2018-10-12T11:38:34.771Z,49.00
2018-10-12T11:41:02.242Z,49.10
2018-10-12T11:43:32.989Z,49.50
2018-10-12T11:46:00.877Z,50.30
2018-10-12T11:48:28.530Z,51.00
2018-10-12T11:50:55.994Z,50.30
2018-10-12T11:53:23.462Z,50.60
2018-10-12T11:55:50.930Z,50.90
2018-10-12T11:58:18.438Z,50.80
2018-10-12T12:00:45.914Z,50.70
2018-10-12T12:03:13.364Z,49.00
2018-10-12T12:05:40.852Z,50.10
2018-10-12T12:08:09.074Z,51.10
2018-10-12T12:10:36.543Z,51.80
2018-10-12T12:13:04.034Z,52.10
2018-10-12T12:15:31.487Z,50.60
2018-10-12T12:17:59.133Z,50.80
2018-10-12T12:20:26.657Z,48.20
2018-10-12T12:22:54.118Z,47.20
2018-10-12T12:25:21.558Z,45.40
2018-10-12T12:27:49.074Z,47.50
2018-10-12T12:30:16.516Z,46.80
2018-10-12T12:32:43.962Z,44.10
2018-10-12T12:35:11.603Z,46.50
2018-10-12T12:37:38.859Z,49.30
2018-10-12T12:40:06.369Z,46.70
2018-10-12T12:42:33.806Z,46.30
2018-10-12T12:45:01.305Z,47.90
2018-10-12T12:47:28.934Z,42.70
2018-10-12T12:49:56.317Z,41.90
2018-10-12T12:52:23.753Z,47.50
2018-10-12T12:54:51.336Z,42.20
2018-10-12T12:57:18.698Z,42.40
2018-10-12T12:59:46.152Z,44.30
2018-10-12T13:02:13.787Z,49.00
2018-10-12T13:04:41.208Z,50.20
2018-10-12T13:07:08.703Z,51.30
2018-10-12T13:09:36.182Z,51.50
2018-10-12T13:12:03.705Z,45.70
2018-10-12T13:14:31.126Z,43.50
2018-10-12T13:16:58.558Z,42.10
2018-10-12T13:19:26.002Z,42.60
2018-10-12T13:21:53.512Z,42.40
2018-10-12T13:24:20.962Z,41.20
2018-10-12T13:26:48.415Z,38.70
2018-10-12T13:29:15.849Z,39.80
2018-10-12T13:31:43.448Z,40.10
2018-10-12T13:34:10.882Z,33.30
2018-10-12T13:36:38.394Z,33.10
2018-10-12T13:39:08.371Z,31.90
2018-10-12T13:41:36.216Z,29.60
2018-10-12T13:44:04.033Z,27.50
2018-10-12T13:46:31.553Z,27.80
2018-10-12T13:48:59.080Z,28.70
2018-10-12T13:51:26.535Z,29.50
2018-10-12T13:53:54.373Z,29.50
2018-10-12T13:56:21.858Z,30.40
2018-10-12T13:58:49.372Z,31.50
2018-10-12T14:01:16.806Z,28.30
2018-10-12T14:03:44.306Z,29.60
2018-10-12T14:06:11.767Z,33.20
2018-10-12T14:08:39.331Z,36.20
2018-10-12T14:11:06.869Z,41.00
2018-10-12T14:13:34.486Z,43.00
2018-10-12T14:16:01.998Z,45.20
2018-10-12T14:18:29.510Z,43.40
2018-10-12T14:20:56.951Z,44.70
2018-10-12T14:23:24.410Z,47.50
2018-10-12T14:25:51.888Z,48.50
2018-10-12T14:28:19.373Z,49.30
2018-10-12T14:30:46.853Z,49.90
2018-10-12T14:33:14.279Z,49.50
2018-10-12T14:35:41.772Z,47.80
2018-10-12T14:38:09.203Z,45.50
2018-10-12T14:40:36.676Z,44.60
2018-10-12T14:43:04.181Z,43.10
2018-10-12T14:45:31.835Z,44.20
2018-10-12T14:47:59.317Z,43.50
2018-10-12T14:50:26.743Z,44.10
2018-10-12T14:52:54.298Z,45.00
2018-10-12T14:55:21.741Z,44.60
2018-10-12T14:57:49.193Z,45.60
2018-10-12T15:00:16.608Z,44.10
2018-10-12T15:02:44.105Z,43.90
2018-10-12T15:05:11.519Z,43.60
2018-10-12T15:07:39.012Z,45.20
2018-10-12T15:10:06.495Z,43.90
2018-10-12T15:12:34.006Z,44.50
2018-10-12T15:15:12.022Z,45.60
2018-10-12T15:17:39.552Z,44.70
2018-10-12T15:20:07.120Z,44.90
2018-10-12T15:22:34.576Z,46.30
2018-10-12T15:25:02.048Z,45.50
2018-10-12T15:27:29.493Z,46.80
2018-10-12T15:29:56.976Z,43.90
2018-10-12T15:32:24.393Z,45.20
2018-10-12T15:34:51.901Z,44.80
2018-10-12T15:37:19.382Z,46.50
2018-10-12T15:39:46.795Z,47.00
2018-10-12T15:42:14.320Z,47.10
2018-10-12T15:44:41.827Z,46.20
2018-10-12T15:47:09.310Z,45.40
2018-10-12T15:49:36.807Z,46.40
2018-10-12T15:52:04.277Z,45.90
2018-10-12T15:54:31.818Z,47.50
2018-10-12T15:56:59.257Z,47.00
2018-10-12T15:59:26.749Z,47.20
2018-10-12T16:01:54.198Z,47.90
2018-10-12T16:04:21.631Z,48.10
2018-10-12T16:06:49.183Z,48.90
2018-10-12T16:09:16.626Z,48.20
2018-10-12T16:11:44.157Z,48.30
2018-10-12T16:14:11.686Z,48.60
2018-10-12T16:16:39.202Z,48.90
2018-10-12T16:19:06.915Z,49.10
2018-10-12T16:21:34.367Z,49.40
2018-10-12T16:24:07.698Z,51.40
2018-10-12T16:26:35.336Z,51.70
2018-10-12T16:29:02.878Z,51.50
2018-10-12T16:31:30.319Z,52.80
2018-10-12T16:33:57.932Z,52.90
2018-10-12T16:36:25.492Z,51.80
2018-10-12T16:38:52.996Z,53.80
2018-10-12T16:41:20.553Z,54.20
2018-10-12T16:43:48.035Z,54.60
2018-10-12T16:46:15.603Z,54.70
2018-10-12T16:48:43.096Z,55.20
2018-10-12T16:51:10.592Z,55.50
2018-10-12T16:53:38.066Z,55.10
2018-10-12T16:56:05.562Z,54.80
2018-10-12T16:58:33.053Z,54.60
2018-10-12T17:01:00.533Z,51.70
2018-10-12T17:03:28.815Z,53.40
2018-10-12T17:05:56.397Z,53.60
2018-10-12T17:08:23.856Z,53.90
2018-10-12T17:10:51.318Z,54.70
2018-10-12T17:13:18.838Z,56.80
2018-10-12T17:15:46.290Z,56.80
2018-10-12T17:18:13.798Z,52.00
2018-10-12T17:20:42.542Z,53.70
2018-10-12T17:23:11.701Z,52.70
2018-10-12T17:25:39.198Z,52.80
2018-10-12T17:28:06.666Z,55.60
2018-10-12T17:30:34.148Z,55.50
2018-10-12T17:33:01.551Z,53.20
2018-10-12T17:35:29.222Z,53.40
2018-10-12T17:37:56.702Z,57.30
2018-10-12T17:40:24.177Z,54.70
2018-10-12T17:42:51.674Z,57.40
2018-10-12T17:45:19.270Z,53.90
2018-10-12T17:47:46.742Z,53.90
2018-10-12T17:50:14.275Z,57.30
2018-10-12T17:52:42.589Z,54.70
2018-10-12T17:55:10.066Z,58.20
2018-10-12T17:57:37.503Z,55.10
2018-10-12T18:00:06.231Z,59.40
2018-10-12T18:02:33.713Z,59.10
2018-10-12T18:05:01.435Z,57.10
2018-10-12T18:07:28.976Z,61.20
2018-10-12T18:09:57.282Z,61.70
2018-10-12T18:12:24.824Z,59.70
2018-10-12T18:14:52.379Z,60.80
2018-10-12T18:17:20.003Z,56.40
2018-10-12T18:19:47.596Z,61.60
2018-10-12T18:22:15.035Z,58.80
2018-10-12T18:24:42.618Z,61.60
2018-10-12T18:27:10.100Z,61.50
2018-10-12T18:29:37.596Z,61.20
2018-10-12T18:32:05.115Z,53.90
2018-10-12T18:34:32.591Z,53.60
2018-10-12T18:37:00.137Z,55.60
2018-10-12T18:39:28.151Z,57.60
2018-10-12T18:41:55.607Z,56.00
2018-10-12T18:44:23.194Z,55.10
2018-10-12T18:46:51.538Z,55.60
2018-10-12T18:49:19.003Z,58.30
2018-10-12T18:51:46.616Z,59.10
2018-10-12T18:54:14.272Z,59.30
2018-10-12T18:56:41.779Z,56.40
2018-10-12T18:59:09.402Z,54.60
2018-10-12T19:01:36.946Z,56.00
2018-10-12T19:04:04.467Z,59.50
2018-10-12T19:06:31.961Z,60.30
2018-10-12T19:08:59.451Z,54.40
2018-10-12T19:11:26.946Z,59.20
2018-10-12T19:13:54.521Z,60.00
2018-10-12T19:16:21.925Z,57.50
2018-10-12T19:18:49.416Z,54.80
2018-10-12T19:21:16.934Z,55.50
2018-10-12T19:23:44.549Z,56.10
2018-10-12T19:26:11.914Z,56.20
2018-10-12T19:28:39.431Z,60.50
2018-10-12T19:31:07.615Z,54.90
2018-10-12T19:33:35.832Z,58.20
2018-10-12T19:36:03.373Z,55.20
2018-10-12T19:38:30.952Z,60.90
2018-10-12T19:40:58.424Z,55.20
2018-10-12T19:43:25.916Z,55.00
2018-10-12T19:45:53.423Z,55.40
2018-10-12T19:48:20.933Z,55.60
2018-10-12T19:50:48.475Z,55.70
2018-10-12T19:53:16.123Z,56.10
2018-10-12T19:55:43.639Z,56.30
2018-10-12T19:58:11.195Z,56.90
2018-10-12T20:00:38.706Z,56.20
2018-10-12T20:03:06.354Z,56.30
2018-10-12T20:05:33.944Z,59.50
2018-10-12T20:08:01.555Z,61.30
2018-10-12T20:10:29.226Z,57.60
2018-10-12T20:12:56.723Z,59.70
2018-10-12T20:15:24.227Z,55.90
2018-10-12T20:17:51.992Z,60.20
2018-10-12T20:20:19.811Z,62.00
2018-10-12T20:22:47.527Z,57.00
2018-10-12T20:25:15.140Z,60.70
2018-10-12T20:27:42.629Z,59.60
2018-10-12T20:30:10.160Z,58.10
2018-10-12T20:32:37.685Z,60.20
2018-10-12T20:35:05.326Z,58.50
2018-10-12T20:37:32.815Z,57.30
2018-10-12T20:40:00.307Z,54.90
2018-10-12T20:42:27.794Z,55.70
2018-10-12T20:44:55.265Z,56.10
2018-10-12T20:47:22.755Z,56.50
2018-10-12T20:49:50.969Z,57.10
2018-10-12T20:52:18.469Z,56.60
2018-10-12T20:54:45.960Z,56.70
2018-10-12T20:57:13.507Z,57.80
2018-10-12T20:59:40.986Z,58.30
2018-10-12T21:02:08.497Z,60.00
2018-10-12T21:04:36.028Z,61.40
2018-10-12T21:07:03.666Z,61.50
2018-10-12T21:09:31.181Z,58.10
2018-10-12T21:11:58.682Z,59.00
2018-10-12T21:14:26.148Z,60.50
2018-10-12T21:16:53.634Z,61.00
2018-10-12T21:19:21.138Z,60.60
2018-10-12T21:21:48.670Z,56.50
2018-10-12T21:24:16.134Z,57.20
2018-10-12T21:26:43.638Z,59.30
2018-10-12T21:29:11.073Z,61.10
2018-10-12T21:31:38.555Z,61.70
2018-10-12T21:34:06.046Z,60.90
2018-10-12T21:36:33.550Z,56.50
2018-10-12T21:39:01.031Z,55.60
2018-10-12T21:41:28.485Z,60.70
2018-10-12T21:43:55.935Z,57.90
2018-10-12T21:46:23.433Z,55.80
2018-10-12T21:48:50.911Z,56.90
2018-10-12T21:51:18.383Z,60.80
2018-10-12T21:53:45.806Z,59.60
2018-10-12T21:56:13.254Z,59.90
2018-10-12T21:58:40.698Z,56.70
2018-10-12T22:01:08.192Z,57.30
2018-10-12T22:03:36.463Z,57.30
2018-10-12T22:06:04.176Z,58.10
2018-10-12T22:08:37.270Z,59.00
2018-10-12T22:11:05.346Z,62.30
2018-10-12T22:13:33.034Z,60.20
2018-10-12T22:16:00.511Z,61.80
2018-10-12T22:18:28.021Z,58.60
2018-10-12T22:20:55.443Z,59.90
2018-10-12T22:23:22.887Z,62.50
2018-10-12T22:25:50.438Z,63.20
2018-10-12T22:28:17.843Z,59.00
2018-10-12T22:30:45.418Z,62.20
2018-10-12T22:33:12.928Z,61.20
2018-10-12T22:35:40.413Z,61.00
2018-10-12T22:38:07.874Z,59.00
2018-10-12T22:40:35.341Z,61.00
2018-10-12T22:43:02.816Z,60.70
2018-10-12T22:45:30.246Z,60.90
2018-10-12T22:47:57.720Z,57.30
2018-10-12T22:50:25.160Z,60.70
2018-10-12T22:52:52.709Z,59.50
2018-10-12T22:55:20.166Z,62.50
2018-10-12T22:57:47.617Z,64.00
2018-10-12T23:00:15.082Z,57.30
2018-10-12T23:02:42.542Z,59.60
2018-10-12T23:05:10.839Z,58.30
2018-10-12T23:07:38.306Z,60.30
2018-10-12T23:10:06.361Z,62.20
2018-10-12T23:12:33.796Z,63.60
2018-10-12T23:15:01.246Z,63.30
2018-10-12T23:17:28.683Z,59.20
2018-10-12T23:19:56.178Z,58.20
2018-10-12T23:22:23.598Z,62.10
2018-10-12T23:24:51.055Z,58.40
2018-10-12T23:27:18.486Z,61.40
2018-10-12T23:29:45.971Z,61.80
2018-10-12T23:32:13.509Z,58.00
2018-10-12T23:34:40.985Z,60.00
2018-10-12T23:37:08.517Z,63.10
2018-10-12T23:39:36.033Z,59.80
2018-10-12T23:42:03.498Z,57.60
2018-10-12T23:44:30.958Z,58.40
2018-10-12T23:46:58.374Z,57.70
2018-10-12T23:49:25.834Z,58.20
2018-10-12T23:51:53.309Z,60.00
2018-10-12T23:54:20.898Z,59.30
2018-10-12T23:56:48.323Z,59.90
2018-10-12T23:59:15.887Z,59.80
